Main page
METAR-TAF:

METAR-TAF

Airports :

Bandar Abbas International Airport

Bandar Abbas, Iran

latitude: 27-13N, longitude: 056-22E, elevation: 10 m

Current weather observation

The report was made 30 minutes ago, at 17:30 UTC
Wind 6 kt from the West/Southwest
Temperature 13°C
Humidity 77%
Pressure 1019 hPa
Visibility 10 km or more
no clouds below 1500 m and no cumulonimbus

METAR: OIKB 271730Z 25006KT CAVOK 13/09 Q1018 A3009

Time: 21:30 (18:00 UTC)

Forecast

The report was made 30 minutes ago, at 17:30 UTC
Forecast valid from 27 at 18 UTC to 28 at 24 UTC
Wind 8 kt from the North/Northeast
Visibility: 7000 m
Temporary
from 27 at 21 UTC to 28 at 04 UTC
Visibility: 4000 m
mist

TAF: OIKB 271730Z 2718/2824 03008KT 7000 NSC TEMPO 2721/2804 4000 BR

Weather observations and forecasts of more than 4000 airports (METAR and TAF reports).

The available stations are represented by yellow and red dots on the map.

Hover mouse over dot to see the name of the station.

Then click to see weather observations and forecasts.

To change the map : click on the green buttons with a black cross to zoom in, on the green button with a dash to zoom out, or on the green arrows for adjacent maps.


METAR-TAF: